Main page
METAR-TAF:

METAR-TAF

Airports :

Lleida, Spain

Lleida-Alguaire

latitude: 41-43-40N, longitude: 000-32-09E, elevation: 350 m

Current weather observation

The report was made 12 minutes ago, at 07:00 UTC
Calm wind
Temperature 0°C
Humidity 100%
Pressure 1022 hPa
Visibility 10 km or more
no clouds below 1500 m and no cumulonimbus

METAR: LEDA 180700Z 00000KT CAVOK M00/M00 Q1022

Time: 08:12 (07:12 UTC)

Forecast

The report was made 5 hours and 12 minutes ago, at 02:00 UTC
Forecast valid from 18 at 03 UTC to 19 at 03 UTC
Wind 4 kt from variable directions
Visibility 10 km or more
Few clouds at a height of 4000 ft
Probability 30% :
Temporary
from 18 at 04 UTC to 18 at 09 UTC
Visibility: 3000 m
mist

TAF: LEDA 180200Z 1803/1903 VRB04KT 9999 FEW040 TX14/1814Z TN01/1806Z PROB30 TEMPO 1804/1809 3000 BR

Weather observations and forecasts of more than 4000 airports (METAR and TAF reports).

The available stations are represented by yellow and red dots on the map.

Hover mouse over dot to see the name of the station.

Then click to see weather observations and forecasts.

To change the map : click on the green buttons with a black cross to zoom in, on the green button with a dash to zoom out, or on the green arrows for adjacent maps.


METAR-TAF: